sensor_id;sensor_type;location;lat;lon;timestamp;P1;durP1;ratioP1;P2;durP2;ratioP2
39924;SDS011;25592;49.986;11.618;2023-04-25T00:02:39;10.05;;;4.85;;
39924;SDS011;25592;49.986;11.618;2023-04-25T00:05:25;8.57;;;5.28;;
39924;SDS011;25592;49.986;11.618;2023-04-25T00:08:11;8.18;;;5.07;;
39924;SDS011;25592;49.986;11.618;2023-04-25T00:10:57;7.57;;;4.80;;
39924;SDS011;25592;49.986;11.618;2023-04-25T00:13:42;9.48;;;4.55;;
39924;SDS011;25592;49.986;11.618;2023-04-25T00:16:28;9.82;;;5.10;;
39924;SDS011;25592;49.986;11.618;2023-04-25T00:19:15;10.07;;;5.47;;
39924;SDS011;25592;49.986;11.618;2023-04-25T00:22:01;11.05;;;4.88;;
39924;SDS011;25592;49.986;11.618;2023-04-25T00:24:47;7.80;;;4.78;;
39924;SDS011;25592;49.986;11.618;2023-04-25T00:27:32;8.20;;;4.97;;
39924;SDS011;25592;49.986;11.618;2023-04-25T00:30:18;9.00;;;5.07;;
39924;SDS011;25592;49.986;11.618;2023-04-25T00:33:03;6.85;;;4.38;;
39924;SDS011;25592;49.986;11.618;2023-04-25T00:35:49;8.07;;;4.85;;
39924;SDS011;25592;49.986;11.618;2023-04-25T00:38:34;8.15;;;4.72;;
39924;SDS011;25592;49.986;11.618;2023-04-25T00:41:20;7.00;;;4.70;;
39924;SDS011;25592;49.986;11.618;2023-04-25T00:44:05;11.27;;;5.10;;
39924;SDS011;25592;49.986;11.618;2023-04-25T00:46:52;8.93;;;4.90;;
39924;SDS011;25592;49.986;11.618;2023-04-25T00:49:38;7.63;;;4.43;;
39924;SDS011;25592;49.986;11.618;2023-04-25T00:52:24;6.03;;;3.88;;
39924;SDS011;25592;49.986;11.618;2023-04-25T00:55:10;8.82;;;5.07;;
39924;SDS011;25592;49.986;11.618;2023-04-25T00:57:56;9.20;;;4.80;;
39924;SDS011;25592;49.986;11.618;2023-04-25T01:00:41;6.55;;;4.25;;
39924;SDS011;25592;49.986;11.618;2023-04-25T01:03:27;7.05;;;4.72;;
39924;SDS011;25592;49.986;11.618;2023-04-25T01:06:14;8.77;;;4.60;;
39924;SDS011;25592;49.986;11.618;2023-04-25T01:09:01;7.97;;;4.35;;
39924;SDS011;25592;49.986;11.618;2023-04-25T01:11:48;7.95;;;4.47;;
39924;SDS011;25592;49.986;11.618;2023-04-25T01:14:33;9.85;;;4.80;;
39924;SDS011;25592;49.986;11.618;2023-04-25T01:17:19;6.55;;;4.28;;
39924;SDS011;25592;49.986;11.618;2023-04-25T01:20:06;6.75;;;4.32;;
39924;SDS011;25592;49.986;11.618;2023-04-25T01:22:52;5.90;;;4.13;;
39924;SDS011;25592;49.986;11.618;2023-04-25T01:25:37;6.65;;;4.55;;
39924;SDS011;25592;49.986;11.618;2023-04-25T01:28:24;8.13;;;4.55;;
39924;SDS011;25592;49.986;11.618;2023-04-25T01:31:09;7.80;;;4.40;;
39924;SDS011;25592;49.986;11.618;2023-04-25T01:33:56;8.77;;;3.83;;
39924;SDS011;25592;49.986;11.618;2023-04-25T01:36:41;7.85;;;4.30;;
39924;SDS011;25592;49.986;11.618;2023-04-25T01:39:27;7.68;;;4.55;;
39924;SDS011;25592;49.986;11.618;2023-04-25T01:42:12;9.40;;;4.65;;
39924;SDS011;25592;49.986;11.618;2023-04-25T01:44:58;6.78;;;4.55;;
39924;SDS011;25592;49.986;11.618;2023-04-25T01:47:44;11.27;;;6.28;;
39924;SDS011;25592;49.986;11.618;2023-04-25T01:50:33;8.38;;;4.55;;
39924;SDS011;25592;49.986;11.618;2023-04-25T01:53:19;8.80;;;4.50;;
39924;SDS011;25592;49.986;11.618;2023-04-25T01:56:04;8.88;;;4.72;;
39924;SDS011;25592;49.986;11.618;2023-04-25T01:58:49;6.28;;;3.72;;
39924;SDS011;25592;49.986;11.618;2023-04-25T02:01:36;7.00;;;3.88;;
39924;SDS011;25592;49.986;11.618;2023-04-25T02:04:21;7.40;;;4.55;;
39924;SDS011;25592;49.986;11.618;2023-04-25T02:07:06;6.75;;;4.25;;
39924;SDS011;25592;49.986;11.618;2023-04-25T02:09:52;7.53;;;4.68;;
39924;SDS011;25592;49.986;11.618;2023-04-25T02:12:37;6.95;;;4.05;;
39924;SDS011;25592;49.986;11.618;2023-04-25T02:15:22;6.25;;;4.00;;
39924;SDS011;25592;49.986;11.618;2023-04-25T02:18:08;6.97;;;4.93;;
39924;SDS011;25592;49.986;11.618;2023-04-25T02:20:55;7.03;;;4.03;;
39924;SDS011;25592;49.986;11.618;2023-04-25T02:23:40;7.65;;;3.70;;
39924;SDS011;25592;49.986;11.618;2023-04-25T02:26:26;8.38;;;4.55;;
39924;SDS011;25592;49.986;11.618;2023-04-25T02:29:11;6.45;;;4.28;;
39924;SDS011;25592;49.986;11.618;2023-04-25T02:31:57;9.02;;;5.30;;
39924;SDS011;25592;49.986;11.618;2023-04-25T02:34:42;10.65;;;5.18;;
39924;SDS011;25592;49.986;11.618;2023-04-25T02:37:27;6.80;;;4.50;;
39924;SDS011;25592;49.986;11.618;2023-04-25T02:40:13;6.20;;;4.10;;
39924;SDS011;25592;49.986;11.618;2023-04-25T02:42:58;7.45;;;4.65;;
39924;SDS011;25592;49.986;11.618;2023-04-25T02:45:44;6.72;;;4.28;;
39924;SDS011;25592;49.986;11.618;2023-04-25T02:48:29;5.93;;;4.15;;
39924;SDS011;25592;49.986;11.618;2023-04-25T02:51:14;10.15;;;5.07;;
39924;SDS011;25592;49.986;11.618;2023-04-25T02:54:01;7.60;;;4.72;;
39924;SDS011;25592;49.986;11.618;2023-04-25T02:56:46;6.75;;;4.50;;
39924;SDS011;25592;49.986;11.618;2023-04-25T02:59:32;7.55;;;4.85;;
39924;SDS011;25592;49.986;11.618;2023-04-25T03:02:17;7.28;;;4.50;;
39924;SDS011;25592;49.986;11.618;2023-04-25T03:05:03;6.65;;;4.35;;
39924;SDS011;25592;49.986;11.618;2023-04-25T03:07:48;8.18;;;4.53;;
39924;SDS011;25592;49.986;11.618;2023-04-25T03:10:34;8.05;;;4.38;;
39924;SDS011;25592;49.986;11.618;2023-04-25T03:13:19;8.57;;;4.97;;
39924;SDS011;25592;49.986;11.618;2023-04-25T03:16:05;8.57;;;5.20;;
39924;SDS011;25592;49.986;11.618;2023-04-25T03:18:50;11.98;;;4.85;;
39924;SDS011;25592;49.986;11.618;2023-04-25T03:21:36;8.25;;;4.60;;
39924;SDS011;25592;49.986;11.618;2023-04-25T03:24:21;8.10;;;4.78;;
39924;SDS011;25592;49.986;11.618;2023-04-25T03:27:06;8.25;;;4.18;;
39924;SDS011;25592;49.986;11.618;2023-04-25T03:29:52;8.75;;;4.90;;
39924;SDS011;25592;49.986;11.618;2023-04-25T03:32:37;10.27;;;4.88;;
39924;SDS011;25592;49.986;11.618;2023-04-25T03:35:23;10.85;;;5.00;;
39924;SDS011;25592;49.986;11.618;2023-04-25T03:38:10;7.50;;;4.72;;
39924;SDS011;25592;49.986;11.618;2023-04-25T03:40:56;8.10;;;4.57;;
39924;SDS011;25592;49.986;11.618;2023-04-25T03:43:42;9.93;;;5.53;;
39924;SDS011;25592;49.986;11.618;2023-04-25T03:46:27;8.70;;;5.45;;
39924;SDS011;25592;49.986;11.618;2023-04-25T03:49:13;7.55;;;4.65;;
39924;SDS011;25592;49.986;11.618;2023-04-25T03:52:02;8.60;;;4.90;;
39924;SDS011;25592;49.986;11.618;2023-04-25T03:54:48;8.07;;;5.05;;
39924;SDS011;25592;49.986;11.618;2023-04-25T03:57:33;9.23;;;4.57;;
39924;SDS011;25592;49.986;11.618;2023-04-25T04:00:18;8.30;;;5.10;;
39924;SDS011;25592;49.986;11.618;2023-04-25T04:03:04;10.02;;;5.78;;
39924;SDS011;25592;49.986;11.618;2023-04-25T04:05:49;7.38;;;4.45;;
39924;SDS011;25592;49.986;11.618;2023-04-25T04:08:35;10.13;;;5.22;;
39924;SDS011;25592;49.986;11.618;2023-04-25T04:11:20;8.82;;;5.15;;
39924;SDS011;25592;49.986;11.618;2023-04-25T04:14:06;8.73;;;5.05;;
39924;SDS011;25592;49.986;11.618;2023-04-25T04:16:52;7.57;;;4.93;;
39924;SDS011;25592;49.986;11.618;2023-04-25T04:19:37;10.32;;;5.80;;
39924;SDS011;25592;49.986;11.618;2023-04-25T04:22:23;10.32;;;5.70;;
39924;SDS011;25592;49.986;11.618;2023-04-25T04:25:09;9.85;;;5.53;;
39924;SDS011;25592;49.986;11.618;2023-04-25T04:27:56;9.40;;;4.68;;
39924;SDS011;25592;49.986;11.618;2023-04-25T04:30:42;9.55;;;5.10;;
39924;SDS011;25592;49.986;11.618;2023-04-25T04:33:30;8.40;;;5.30;;
39924;SDS011;25592;49.986;11.618;2023-04-25T04:36:16;8.32;;;5.45;;
39924;SDS011;25592;49.986;11.618;2023-04-25T04:39:05;10.15;;;5.47;;
39924;SDS011;25592;49.986;11.618;2023-04-25T04:41:52;7.90;;;5.25;;
39924;SDS011;25592;49.986;11.618;2023-04-25T04:44:38;8.60;;;5.22;;
39924;SDS011;25592;49.986;11.618;2023-04-25T04:47:24;8.63;;;5.45;;
39924;SDS011;25592;49.986;11.618;2023-04-25T04:50:10;8.55;;;5.32;;
39924;SDS011;25592;49.986;11.618;2023-04-25T04:52:56;7.57;;;4.85;;
39924;SDS011;25592;49.986;11.618;2023-04-25T04:55:41;10.60;;;5.72;;
39924;SDS011;25592;49.986;11.618;2023-04-25T04:58:27;7.45;;;4.75;;
39924;SDS011;25592;49.986;11.618;2023-04-25T05:01:14;7.30;;;4.90;;
39924;SDS011;25592;49.986;11.618;2023-04-25T05:04:01;10.05;;;5.50;;
39924;SDS011;25592;49.986;11.618;2023-04-25T05:06:48;9.23;;;4.60;;
39924;SDS011;25592;49.986;11.618;2023-04-25T05:09:33;7.28;;;4.75;;
39924;SDS011;25592;49.986;11.618;2023-04-25T05:12:19;7.07;;;4.18;;
39924;SDS011;25592;49.986;11.618;2023-04-25T05:15:04;8.88;;;3.97;;
39924;SDS011;25592;49.986;11.618;2023-04-25T05:17:50;7.72;;;3.28;;
39924;SDS011;25592;49.986;11.618;2023-04-25T05:20:35;5.43;;;3.42;;
39924;SDS011;25592;49.986;11.618;2023-04-25T05:23:21;6.13;;;2.53;;
39924;SDS011;25592;49.986;11.618;2023-04-25T05:26:06;6.25;;;3.00;;
39924;SDS011;25592;49.986;11.618;2023-04-25T05:28:58;6.07;;;2.90;;
39924;SDS011;25592;49.986;11.618;2023-04-25T05:31:44;4.72;;;2.50;;
39924;SDS011;25592;49.986;11.618;2023-04-25T05:34:30;3.63;;;1.77;;
39924;SDS011;25592;49.986;11.618;2023-04-25T05:37:15;3.10;;;1.83;;
39924;SDS011;25592;49.986;11.618;2023-04-25T05:40:01;3.67;;;1.80;;
39924;SDS011;25592;49.986;11.618;2023-04-25T05:42:49;5.95;;;2.25;;
39924;SDS011;25592;49.986;11.618;2023-04-25T05:45:34;3.53;;;1.90;;
39924;SDS011;25592;49.986;11.618;2023-04-25T05:48:19;4.50;;;1.90;;
39924;SDS011;25592;49.986;11.618;2023-04-25T05:51:05;3.92;;;1.92;;
39924;SDS011;25592;49.986;11.618;2023-04-25T05:53:50;3.78;;;1.70;;
39924;SDS011;25592;49.986;11.618;2023-04-25T05:56:36;5.15;;;2.00;;
39924;SDS011;25592;49.986;11.618;2023-04-25T05:59:22;3.95;;;1.48;;
39924;SDS011;25592;49.986;11.618;2023-04-25T06:02:07;3.28;;;1.80;;
39924;SDS011;25592;49.986;11.618;2023-04-25T06:04:52;3.35;;;1.80;;
39924;SDS011;25592;49.986;11.618;2023-04-25T06:07:38;5.22;;;2.20;;
39924;SDS011;25592;49.986;11.618;2023-04-25T06:10:24;5.65;;;1.83;;
39924;SDS011;25592;49.986;11.618;2023-04-25T06:13:09;5.45;;;1.95;;
39924;SDS011;25592;49.986;11.618;2023-04-25T06:15:55;4.57;;;2.15;;
39924;SDS011;25592;49.986;11.618;2023-04-25T06:18:40;3.22;;;1.92;;
39924;SDS011;25592;49.986;11.618;2023-04-25T06:21:25;4.13;;;2.20;;
39924;SDS011;25592;49.986;11.618;2023-04-25T06:24:12;4.40;;;2.70;;
39924;SDS011;25592;49.986;11.618;2023-04-25T06:29:45;5.10;;;2.40;;
39924;SDS011;25592;49.986;11.618;2023-04-25T06:32:31;7.10;;;4.38;;
39924;SDS011;25592;49.986;11.618;2023-04-25T06:35:17;4.72;;;2.40;;
39924;SDS011;25592;49.986;11.618;2023-04-25T06:38:02;3.83;;;2.30;;
39924;SDS011;25592;49.986;11.618;2023-04-25T06:40:48;5.18;;;2.50;;
39924;SDS011;25592;49.986;11.618;2023-04-25T06:43:33;4.15;;;2.25;;
39924;SDS011;25592;49.986;11.618;2023-04-25T06:46:19;5.65;;;2.63;;
39924;SDS011;25592;49.986;11.618;2023-04-25T06:49:04;5.22;;;2.40;;
39924;SDS011;25592;49.986;11.618;2023-04-25T06:51:50;4.82;;;2.88;;
39924;SDS011;25592;49.986;11.618;2023-04-25T06:54:35;3.55;;;1.85;;
39924;SDS011;25592;49.986;11.618;2023-04-25T06:57:20;7.78;;;2.38;;
39924;SDS011;25592;49.986;11.618;2023-04-25T07:00:06;4.22;;;2.47;;
39924;SDS011;25592;49.986;11.618;2023-04-25T07:02:53;5.43;;;2.03;;
39924;SDS011;25592;49.986;11.618;2023-04-25T07:05:39;6.20;;;2.78;;
39924;SDS011;25592;49.986;11.618;2023-04-25T07:08:24;5.55;;;2.65;;
39924;SDS011;25592;49.986;11.618;2023-04-25T07:11:10;7.47;;;3.63;;
39924;SDS011;25592;49.986;11.618;2023-04-25T07:13:55;6.20;;;2.75;;
39924;SDS011;25592;49.986;11.618;2023-04-25T07:16:40;4.18;;;2.22;;
39924;SDS011;25592;49.986;11.618;2023-04-25T07:19:27;5.45;;;2.33;;
39924;SDS011;25592;49.986;11.618;2023-04-25T07:22:14;5.05;;;2.40;;
39924;SDS011;25592;49.986;11.618;2023-04-25T07:24:59;5.70;;;2.72;;
39924;SDS011;25592;49.986;11.618;2023-04-25T07:27:45;4.60;;;2.75;;
39924;SDS011;25592;49.986;11.618;2023-04-25T07:30:30;5.50;;;2.45;;
39924;SDS011;25592;49.986;11.618;2023-04-25T07:33:16;6.10;;;3.05;;
39924;SDS011;25592;49.986;11.618;2023-04-25T07:36:01;7.35;;;3.10;;
39924;SDS011;25592;49.986;11.618;2023-04-25T07:38:47;6.40;;;3.08;;
39924;SDS011;25592;49.986;11.618;2023-04-25T07:41:32;8.10;;;3.45;;
39924;SDS011;25592;49.986;11.618;2023-04-25T07:44:18;7.88;;;3.00;;
39924;SDS011;25592;49.986;11.618;2023-04-25T07:47:04;4.43;;;2.75;;
39924;SDS011;25592;49.986;11.618;2023-04-25T07:49:51;7.90;;;3.05;;
39924;SDS011;25592;49.986;11.618;2023-04-25T07:52:37;5.07;;;2.50;;
39924;SDS011;25592;49.986;11.618;2023-04-25T07:55:22;7.10;;;3.40;;
39924;SDS011;25592;49.986;11.618;2023-04-25T07:58:08;5.55;;;2.97;;
39924;SDS011;25592;49.986;11.618;2023-04-25T08:00:55;7.13;;;3.53;;
39924;SDS011;25592;49.986;11.618;2023-04-25T08:03:40;4.97;;;3.05;;
39924;SDS011;25592;49.986;11.618;2023-04-25T08:06:26;7.55;;;3.35;;
39924;SDS011;25592;49.986;11.618;2023-04-25T08:09:12;6.15;;;3.53;;
39924;SDS011;25592;49.986;11.618;2023-04-25T08:11:57;7.70;;;3.17;;
39924;SDS011;25592;49.986;11.618;2023-04-25T08:14:42;5.13;;;3.47;;
39924;SDS011;25592;49.986;11.618;2023-04-25T08:17:28;6.18;;;3.63;;
39924;SDS011;25592;49.986;11.618;2023-04-25T08:20:13;5.60;;;3.60;;
39924;SDS011;25592;49.986;11.618;2023-04-25T08:22:59;5.15;;;3.10;;
39924;SDS011;25592;49.986;11.618;2023-04-25T08:25:44;8.82;;;3.70;;
39924;SDS011;25592;49.986;11.618;2023-04-25T08:28:29;14.32;;;4.20;;
39924;SDS011;25592;49.986;11.618;2023-04-25T08:31:15;7.30;;;3.65;;
39924;SDS011;25592;49.986;11.618;2023-04-25T08:34:01;6.53;;;3.45;;
39924;SDS011;25592;49.986;11.618;2023-04-25T08:36:46;5.55;;;3.85;;
39924;SDS011;25592;49.986;11.618;2023-04-25T08:39:31;8.23;;;3.47;;
39924;SDS011;25592;49.986;11.618;2023-04-25T08:42:17;7.30;;;3.90;;
39924;SDS011;25592;49.986;11.618;2023-04-25T08:45:02;6.82;;;4.30;;
39924;SDS011;25592;49.986;11.618;2023-04-25T08:47:51;6.32;;;3.40;;
39924;SDS011;25592;49.986;11.618;2023-04-25T08:50:43;6.43;;;4.05;;
39924;SDS011;25592;49.986;11.618;2023-04-25T08:53:39;6.25;;;4.15;;
39924;SDS011;25592;49.986;11.618;2023-04-25T08:56:27;7.53;;;3.90;;
39924;SDS011;25592;49.986;11.618;2023-04-25T08:59:14;10.45;;;4.10;;
39924;SDS011;25592;49.986;11.618;2023-04-25T09:02:00;8.38;;;3.78;;
39924;SDS011;25592;49.986;11.618;2023-04-25T09:04:46;6.72;;;3.70;;
39924;SDS011;25592;49.986;11.618;2023-04-25T09:07:31;6.72;;;4.03;;
39924;SDS011;25592;49.986;11.618;2023-04-25T09:10:17;11.98;;;3.67;;
39924;SDS011;25592;49.986;11.618;2023-04-25T09:15:54;6.47;;;3.97;;
39924;SDS011;25592;49.986;11.618;2023-04-25T09:18:40;8.23;;;3.55;;
39924;SDS011;25592;49.986;11.618;2023-04-25T09:21:32;5.45;;;2.80;;
39924;SDS011;25592;49.986;11.618;2023-04-25T09:27:25;6.43;;;3.42;;
39924;SDS011;25592;49.986;11.618;2023-04-25T09:30:11;7.30;;;3.13;;
39924;SDS011;25592;49.986;11.618;2023-04-25T09:33:04;7.45;;;3.22;;
39924;SDS011;25592;49.986;11.618;2023-04-25T09:35:53;8.25;;;3.00;;
39924;SDS011;25592;49.986;11.618;2023-04-25T09:38:41;5.13;;;2.90;;
39924;SDS011;25592;49.986;11.618;2023-04-25T09:41:30;6.05;;;3.17;;
39924;SDS011;25592;49.986;11.618;2023-04-25T09:44:19;5.72;;;3.03;;
39924;SDS011;25592;49.986;11.618;2023-04-25T09:47:09;9.05;;;3.90;;
39924;SDS011;25592;49.986;11.618;2023-04-25T09:49:57;5.90;;;3.22;;
39924;SDS011;25592;49.986;11.618;2023-04-25T09:52:42;5.95;;;3.15;;
39924;SDS011;25592;49.986;11.618;2023-04-25T09:55:28;7.18;;;3.13;;
39924;SDS011;25592;49.986;11.618;2023-04-25T09:58:13;6.75;;;3.13;;
39924;SDS011;25592;49.986;11.618;2023-04-25T10:01:00;8.00;;;2.38;;
39924;SDS011;25592;49.986;11.618;2023-04-25T10:03:47;6.32;;;2.67;;
39924;SDS011;25592;49.986;11.618;2023-04-25T10:06:35;6.88;;;2.88;;
39924;SDS011;25592;49.986;11.618;2023-04-25T10:09:22;4.40;;;2.70;;
39924;SDS011;25592;49.986;11.618;2023-04-25T10:12:10;9.30;;;3.05;;
39924;SDS011;25592;49.986;11.618;2023-04-25T10:14:57;4.78;;;2.10;;
39924;SDS011;25592;49.986;11.618;2023-04-25T10:17:43;7.00;;;2.38;;
39924;SDS011;25592;49.986;11.618;2023-04-25T10:20:29;5.10;;;2.45;;
39924;SDS011;25592;49.986;11.618;2023-04-25T10:23:14;4.38;;;2.30;;
39924;SDS011;25592;49.986;11.618;2023-04-25T10:26:01;5.28;;;1.90;;
39924;SDS011;25592;49.986;11.618;2023-04-25T10:29:03;5.70;;;1.80;;
39924;SDS011;25592;49.986;11.618;2023-04-25T10:31:48;6.03;;;3.60;;
39924;SDS011;25592;49.986;11.618;2023-04-25T10:34:40;4.60;;;2.35;;
39924;SDS011;25592;49.986;11.618;2023-04-25T10:37:27;4.47;;;2.17;;
39924;SDS011;25592;49.986;11.618;2023-04-25T10:40:12;6.20;;;2.15;;
39924;SDS011;25592;49.986;11.618;2023-04-25T10:43:34;3.85;;;1.92;;
39924;SDS011;25592;49.986;11.618;2023-04-25T10:46:22;5.00;;;1.80;;
39924;SDS011;25592;49.986;11.618;2023-04-25T10:49:28;4.05;;;2.08;;
39924;SDS011;25592;49.986;11.618;2023-04-25T10:55:02;5.47;;;2.17;;
39924;SDS011;25592;49.986;11.618;2023-04-25T10:57:48;8.85;;;2.70;;
39924;SDS011;25592;49.986;11.618;2023-04-25T11:00:34;5.75;;;1.77;;
39924;SDS011;25592;49.986;11.618;2023-04-25T11:03:41;4.05;;;1.60;;
39924;SDS011;25592;49.986;11.618;2023-04-25T11:06:46;3.90;;;1.65;;
39924;SDS011;25592;49.986;11.618;2023-04-25T11:09:39;4.38;;;1.77;;
39924;SDS011;25592;49.986;11.618;2023-04-25T11:12:26;3.13;;;1.30;;
39924;SDS011;25592;49.986;11.618;2023-04-25T11:15:11;4.00;;;1.50;;
39924;SDS011;25592;49.986;11.618;2023-04-25T11:17:56;3.10;;;1.55;;
39924;SDS011;25592;49.986;11.618;2023-04-25T11:20:42;2.83;;;1.50;;
39924;SDS011;25592;49.986;11.618;2023-04-25T11:23:28;2.90;;;1.30;;
39924;SDS011;25592;49.986;11.618;2023-04-25T11:26:15;3.08;;;1.52;;
39924;SDS011;25592;49.986;11.618;2023-04-25T11:29:00;2.67;;;1.55;;
39924;SDS011;25592;49.986;11.618;2023-04-25T11:31:46;3.13;;;1.40;;
39924;SDS011;25592;49.986;11.618;2023-04-25T11:34:32;3.42;;;1.25;;
39924;SDS011;25592;49.986;11.618;2023-04-25T11:37:18;2.60;;;1.27;;
39924;SDS011;25592;49.986;11.618;2023-04-25T11:40:03;2.33;;;1.10;;
39924;SDS011;25592;49.986;11.618;2023-04-25T11:42:51;1.67;;;1.02;;
39924;SDS011;25592;49.986;11.618;2023-04-25T11:45:39;1.52;;;1.30;;
39924;SDS011;25592;49.986;11.618;2023-04-25T11:48:24;1.80;;;1.00;;
39924;SDS011;25592;49.986;11.618;2023-04-25T11:51:10;5.28;;;1.08;;
39924;SDS011;25592;49.986;11.618;2023-04-25T11:53:56;1.52;;;0.95;;
39924;SDS011;25592;49.986;11.618;2023-04-25T11:56:42;1.70;;;1.05;;
39924;SDS011;25592;49.986;11.618;2023-04-25T11:59:30;3.67;;;0.95;;
39924;SDS011;25592;49.986;11.618;2023-04-25T12:02:25;1.30;;;0.80;;
39924;SDS011;25592;49.986;11.618;2023-04-25T12:05:12;2.30;;;1.08;;
39924;SDS011;25592;49.986;11.618;2023-04-25T12:08:16;2.63;;;1.08;;
39924;SDS011;25592;49.986;11.618;2023-04-25T12:11:01;2.60;;;1.10;;
39924;SDS011;25592;49.986;11.618;2023-04-25T12:13:51;2.20;;;0.98;;
39924;SDS011;25592;49.986;11.618;2023-04-25T12:16:41;2.47;;;1.00;;
39924;SDS011;25592;49.986;11.618;2023-04-25T12:19:32;3.42;;;1.23;;
39924;SDS011;25592;49.986;11.618;2023-04-25T12:22:19;2.33;;;1.23;;
39924;SDS011;25592;49.986;11.618;2023-04-25T12:25:06;2.33;;;1.20;;
39924;SDS011;25592;49.986;11.618;2023-04-25T12:27:52;4.60;;;1.20;;
39924;SDS011;25592;49.986;11.618;2023-04-25T12:33:48;3.35;;;1.30;;
39924;SDS011;25592;49.986;11.618;2023-04-25T12:36:33;9.85;;;1.88;;
39924;SDS011;25592;49.986;11.618;2023-04-25T12:39:20;2.47;;;1.30;;
39924;SDS011;25592;49.986;11.618;2023-04-25T12:42:09;4.85;;;1.42;;
39924;SDS011;25592;49.986;11.618;2023-04-25T12:44:57;2.70;;;1.20;;
39924;SDS011;25592;49.986;11.618;2023-04-25T12:47:42;2.50;;;1.30;;
39924;SDS011;25592;49.986;11.618;2023-04-25T12:50:28;3.08;;;1.33;;
39924;SDS011;25592;49.986;11.618;2023-04-25T12:53:13;2.42;;;1.42;;
39924;SDS011;25592;49.986;11.618;2023-04-25T12:55:59;4.50;;;1.67;;
39924;SDS011;25592;49.986;11.618;2023-04-25T12:58:45;2.95;;;1.33;;
39924;SDS011;25592;49.986;11.618;2023-04-25T13:01:30;3.60;;;1.30;;
39924;SDS011;25592;49.986;11.618;2023-04-25T13:04:20;2.88;;;1.30;;
39924;SDS011;25592;49.986;11.618;2023-04-25T13:07:06;3.33;;;1.73;;
39924;SDS011;25592;49.986;11.618;2023-04-25T13:09:52;3.72;;;1.70;;
39924;SDS011;25592;49.986;11.618;2023-04-25T13:12:37;3.88;;;1.70;;
39924;SDS011;25592;49.986;11.618;2023-04-25T13:15:22;2.83;;;1.65;;
39924;SDS011;25592;49.986;11.618;2023-04-25T13:18:08;2.38;;;1.40;;
39924;SDS011;25592;49.986;11.618;2023-04-25T13:20:53;3.78;;;1.30;;
39924;SDS011;25592;49.986;11.618;2023-04-25T13:23:39;2.70;;;1.40;;
39924;SDS011;25592;49.986;11.618;2023-04-25T13:26:26;3.28;;;1.50;;
39924;SDS011;25592;49.986;11.618;2023-04-25T13:29:12;3.97;;;1.40;;
39924;SDS011;25592;49.986;11.618;2023-04-25T13:31:57;3.33;;;1.60;;
39924;SDS011;25592;49.986;11.618;2023-04-25T13:34:43;2.85;;;1.25;;
39924;SDS011;25592;49.986;11.618;2023-04-25T13:37:28;2.60;;;1.42;;
39924;SDS011;25592;49.986;11.618;2023-04-25T13:40:15;3.67;;;1.15;;
39924;SDS011;25592;49.986;11.618;2023-04-25T13:43:01;1.58;;;0.95;;
39924;SDS011;25592;49.986;11.618;2023-04-25T13:45:47;1.88;;;1.05;;
39924;SDS011;25592;49.986;11.618;2023-04-25T13:48:33;4.63;;;1.30;;
39924;SDS011;25592;49.986;11.618;2023-04-25T13:51:19;2.67;;;1.40;;
39924;SDS011;25592;49.986;11.618;2023-04-25T13:54:05;2.45;;;1.10;;
39924;SDS011;25592;49.986;11.618;2023-04-25T13:56:50;1.65;;;0.93;;
39924;SDS011;25592;49.986;11.618;2023-04-25T13:59:37;1.77;;;1.10;;
39924;SDS011;25592;49.986;11.618;2023-04-25T14:02:22;2.10;;;1.13;;
39924;SDS011;25592;49.986;11.618;2023-04-25T14:05:08;2.58;;;1.20;;
39924;SDS011;25592;49.986;11.618;2023-04-25T14:07:54;3.47;;;1.20;;
39924;SDS011;25592;49.986;11.618;2023-04-25T14:10:40;2.70;;;1.30;;
39924;SDS011;25592;49.986;11.618;2023-04-25T14:13:25;2.95;;;1.45;;
39924;SDS011;25592;49.986;11.618;2023-04-25T14:16:11;2.30;;;1.20;;
39924;SDS011;25592;49.986;11.618;2023-04-25T14:18:56;4.10;;;1.60;;
39924;SDS011;25592;49.986;11.618;2023-04-25T14:21:42;4.03;;;1.42;;
39924;SDS011;25592;49.986;11.618;2023-04-25T14:24:28;3.38;;;1.33;;
39924;SDS011;25592;49.986;11.618;2023-04-25T14:27:13;6.82;;;1.50;;
39924;SDS011;25592;49.986;11.618;2023-04-25T14:29:59;7.53;;;1.67;;
39924;SDS011;25592;49.986;11.618;2023-04-25T14:32:44;3.67;;;1.50;;
39924;SDS011;25592;49.986;11.618;2023-04-25T14:35:30;4.68;;;1.48;;
39924;SDS011;25592;49.986;11.618;2023-04-25T14:38:16;4.78;;;1.50;;
39924;SDS011;25592;49.986;11.618;2023-04-25T14:41:01;5.30;;;1.70;;
39924;SDS011;25592;49.986;11.618;2023-04-25T14:43:47;6.20;;;1.80;;
39924;SDS011;25592;49.986;11.618;2023-04-25T14:46:33;4.80;;;1.85;;
39924;SDS011;25592;49.986;11.618;2023-04-25T14:49:18;3.53;;;1.80;;
39924;SDS011;25592;49.986;11.618;2023-04-25T14:52:04;5.97;;;1.70;;
39924;SDS011;25592;49.986;11.618;2023-04-25T14:54:49;5.07;;;2.10;;
39924;SDS011;25592;49.986;11.618;2023-04-25T14:57:35;5.15;;;1.52;;
39924;SDS011;25592;49.986;11.618;2023-04-25T15:00:20;6.65;;;1.77;;
39924;SDS011;25592;49.986;11.618;2023-04-25T15:03:06;3.53;;;1.70;;
39924;SDS011;25592;49.986;11.618;2023-04-25T15:05:53;3.92;;;1.80;;
39924;SDS011;25592;49.986;11.618;2023-04-25T15:08:40;5.60;;;2.40;;
39924;SDS011;25592;49.986;11.618;2023-04-25T15:11:25;7.65;;;2.28;;
39924;SDS011;25592;49.986;11.618;2023-04-25T15:14:10;5.80;;;1.80;;
39924;SDS011;25592;49.986;11.618;2023-04-25T15:16:56;5.22;;;1.80;;
39924;SDS011;25592;49.986;11.618;2023-04-25T15:19:41;8.18;;;1.50;;
39924;SDS011;25592;49.986;11.618;2023-04-25T15:22:27;3.72;;;1.65;;
39924;SDS011;25592;49.986;11.618;2023-04-25T15:25:12;5.00;;;1.98;;
39924;SDS011;25592;49.986;11.618;2023-04-25T15:27:58;4.85;;;1.77;;
39924;SDS011;25592;49.986;11.618;2023-04-25T15:30:44;6.75;;;2.55;;
39924;SDS011;25592;49.986;11.618;2023-04-25T15:33:29;6.82;;;2.13;;
39924;SDS011;25592;49.986;11.618;2023-04-25T15:36:16;6.18;;;1.95;;
39924;SDS011;25592;49.986;11.618;2023-04-25T15:39:02;7.93;;;3.60;;
39924;SDS011;25592;49.986;11.618;2023-04-25T15:41:48;5.70;;;2.05;;
39924;SDS011;25592;49.986;11.618;2023-04-25T15:44:34;6.03;;;2.13;;
39924;SDS011;25592;49.986;11.618;2023-04-25T15:47:19;5.28;;;2.15;;
39924;SDS011;25592;49.986;11.618;2023-04-25T15:50:05;5.55;;;1.70;;
39924;SDS011;25592;49.986;11.618;2023-04-25T15:52:53;4.55;;;1.65;;
39924;SDS011;25592;49.986;11.618;2023-04-25T15:55:38;6.50;;;2.55;;
39924;SDS011;25592;49.986;11.618;2023-04-25T15:58:24;12.75;;;3.28;;
39924;SDS011;25592;49.986;11.618;2023-04-25T16:01:11;7.07;;;2.15;;
39924;SDS011;25592;49.986;11.618;2023-04-25T16:03:57;7.43;;;2.15;;
39924;SDS011;25592;49.986;11.618;2023-04-25T16:06:42;8.80;;;1.92;;
39924;SDS011;25592;49.986;11.618;2023-04-25T16:09:28;4.55;;;2.17;;
39924;SDS011;25592;49.986;11.618;2023-04-25T16:12:16;5.22;;;2.33;;
39924;SDS011;25592;49.986;11.618;2023-04-25T16:15:02;5.93;;;2.25;;
39924;SDS011;25592;49.986;11.618;2023-04-25T16:17:47;7.80;;;2.10;;
39924;SDS011;25592;49.986;11.618;2023-04-25T16:20:33;6.80;;;2.22;;
39924;SDS011;25592;49.986;11.618;2023-04-25T16:23:18;8.13;;;2.20;;
39924;SDS011;25592;49.986;11.618;2023-04-25T16:26:04;10.23;;;3.30;;
39924;SDS011;25592;49.986;11.618;2023-04-25T16:28:49;3.72;;;1.88;;
39924;SDS011;25592;49.986;11.618;2023-04-25T16:31:35;6.15;;;2.17;;
39924;SDS011;25592;49.986;11.618;2023-04-25T16:34:20;6.75;;;2.60;;
39924;SDS011;25592;49.986;11.618;2023-04-25T16:37:07;7.03;;;2.25;;
39924;SDS011;25592;49.986;11.618;2023-04-25T16:39:54;7.57;;;1.83;;
39924;SDS011;25592;49.986;11.618;2023-04-25T16:43:12;7.90;;;2.20;;